sensor_id;sensor_type;location;lat;lon;timestamp;temperature;humidity
37702;DHT22;23548;51.196;6.838;2024-01-30T00:01:53;8.60;99.90
37702;DHT22;23548;51.196;6.838;2024-01-30T00:04:19;8.60;99.90
37702;DHT22;23548;51.196;6.838;2024-01-30T00:06:45;8.60;99.90
37702;DHT22;23548;51.196;6.838;2024-01-30T00:09:11;8.60;99.90
37702;DHT22;23548;51.196;6.838;2024-01-30T00:11:37;8.60;99.90
37702;DHT22;23548;51.196;6.838;2024-01-30T00:14:04;8.60;99.90
37702;DHT22;23548;51.196;6.838;2024-01-30T00:16:30;8.60;99.90
37702;DHT22;23548;51.196;6.838;2024-01-30T00:18:55;8.60;99.90
37702;DHT22;23548;51.196;6.838;2024-01-30T00:21:21;8.60;99.90
37702;DHT22;23548;51.196;6.838;2024-01-30T00:23:47;8.60;99.90
37702;DHT22;23548;51.196;6.838;2024-01-30T00:26:13;8.60;99.90
37702;DHT22;23548;51.196;6.838;2024-01-30T00:28:40;8.60;99.90
37702;DHT22;23548;51.196;6.838;2024-01-30T00:31:06;8.60;99.90
37702;DHT22;23548;51.196;6.838;2024-01-30T00:33:32;8.60;99.90
37702;DHT22;23548;51.196;6.838;2024-01-30T00:35:57;8.50;99.90
37702;DHT22;23548;51.196;6.838;2024-01-30T00:38:23;8.50;99.90
37702;DHT22;23548;51.196;6.838;2024-01-30T00:40:49;8.40;99.90
37702;DHT22;23548;51.196;6.838;2024-01-30T00:43:15;8.50;99.90
37702;DHT22;23548;51.196;6.838;2024-01-30T00:45:43;8.40;99.90
37702;DHT22;23548;51.196;6.838;2024-01-30T00:48:09;8.40;99.90
37702;DHT22;23548;51.196;6.838;2024-01-30T00:50:35;8.40;99.90
37702;DHT22;23548;51.196;6.838;2024-01-30T00:53:00;8.40;99.90
37702;DHT22;23548;51.196;6.838;2024-01-30T00:55:26;8.30;99.90
37702;DHT22;23548;51.196;6.838;2024-01-30T00:57:52;8.20;99.90
37702;DHT22;23548;51.196;6.838;2024-01-30T01:00:18;8.20;99.90
37702;DHT22;23548;51.196;6.838;2024-01-30T01:02:44;8.20;99.90
37702;DHT22;23548;51.196;6.838;2024-01-30T01:05:10;8.10;99.90
37702;DHT22;23548;51.196;6.838;2024-01-30T01:07:36;8.10;99.90
37702;DHT22;23548;51.196;6.838;2024-01-30T01:10:02;8.10;99.90
37702;DHT22;23548;51.196;6.838;2024-01-30T01:12:29;8.00;99.90
37702;DHT22;23548;51.196;6.838;2024-01-30T01:14:55;8.10;99.90
37702;DHT22;23548;51.196;6.838;2024-01-30T01:17:21;8.00;99.90
37702;DHT22;23548;51.196;6.838;2024-01-30T01:19:46;8.00;99.90
37702;DHT22;23548;51.196;6.838;2024-01-30T01:22:12;8.00;99.90
37702;DHT22;23548;51.196;6.838;2024-01-30T01:24:38;8.00;99.90
37702;DHT22;23548;51.196;6.838;2024-01-30T01:27:05;8.00;99.90
37702;DHT22;23548;51.196;6.838;2024-01-30T01:29:31;8.00;99.90
37702;DHT22;23548;51.196;6.838;2024-01-30T01:31:57;8.00;99.90
37702;DHT22;23548;51.196;6.838;2024-01-30T01:34:23;8.00;99.90
37702;DHT22;23548;51.196;6.838;2024-01-30T01:36:50;8.00;99.90
37702;DHT22;23548;51.196;6.838;2024-01-30T01:39:16;7.90;99.90
37702;DHT22;23548;51.196;6.838;2024-01-30T01:41:42;7.90;99.90
37702;DHT22;23548;51.196;6.838;2024-01-30T01:44:08;7.90;99.90
37702;DHT22;23548;51.196;6.838;2024-01-30T01:46:34;7.80;99.90
37702;DHT22;23548;51.196;6.838;2024-01-30T01:49:04;7.80;99.90
37702;DHT22;23548;51.196;6.838;2024-01-30T01:51:31;7.80;99.90
37702;DHT22;23548;51.196;6.838;2024-01-30T01:54:02;7.80;99.90
37702;DHT22;23548;51.196;6.838;2024-01-30T01:56:29;7.80;99.90
37702;DHT22;23548;51.196;6.838;2024-01-30T01:59:05;7.80;99.90
37702;DHT22;23548;51.196;6.838;2024-01-30T02:01:33;7.80;99.90
37702;DHT22;23548;51.196;6.838;2024-01-30T02:04:02;7.70;99.90
37702;DHT22;23548;51.196;6.838;2024-01-30T02:06:27;7.70;99.90
37702;DHT22;23548;51.196;6.838;2024-01-30T02:08:54;7.60;99.90
37702;DHT22;23548;51.196;6.838;2024-01-30T02:11:20;7.70;99.90
37702;DHT22;23548;51.196;6.838;2024-01-30T02:13:47;7.70;99.90
37702;DHT22;23548;51.196;6.838;2024-01-30T02:16:13;7.70;99.90
37702;DHT22;23548;51.196;6.838;2024-01-30T02:18:39;7.60;99.90
37702;DHT22;23548;51.196;6.838;2024-01-30T02:21:09;7.70;99.90
37702;DHT22;23548;51.196;6.838;2024-01-30T02:23:34;7.70;99.90
37702;DHT22;23548;51.196;6.838;2024-01-30T02:26:00;7.80;99.90
37702;DHT22;23548;51.196;6.838;2024-01-30T02:28:26;7.90;99.90
37702;DHT22;23548;51.196;6.838;2024-01-30T02:30:53;7.90;99.90
37702;DHT22;23548;51.196;6.838;2024-01-30T02:33:18;7.80;99.90
37702;DHT22;23548;51.196;6.838;2024-01-30T02:35:45;7.90;99.90
37702;DHT22;23548;51.196;6.838;2024-01-30T02:38:10;7.80;99.90
37702;DHT22;23548;51.196;6.838;2024-01-30T02:40:36;7.90;99.90
37702;DHT22;23548;51.196;6.838;2024-01-30T02:43:03;7.90;99.90
37702;DHT22;23548;51.196;6.838;2024-01-30T02:45:29;7.90;99.90
37702;DHT22;23548;51.196;6.838;2024-01-30T02:47:54;8.00;99.90
37702;DHT22;23548;51.196;6.838;2024-01-30T02:50:20;7.90;99.90
37702;DHT22;23548;51.196;6.838;2024-01-30T02:52:46;8.00;99.90
37702;DHT22;23548;51.196;6.838;2024-01-30T02:58:33;8.00;99.90
37702;DHT22;23548;51.196;6.838;2024-01-30T03:00:59;8.00;99.90
37702;DHT22;23548;51.196;6.838;2024-01-30T03:03:25;8.00;99.90
37702;DHT22;23548;51.196;6.838;2024-01-30T03:05:50;8.00;99.90
37702;DHT22;23548;51.196;6.838;2024-01-30T03:08:16;8.10;99.90
37702;DHT22;23548;51.196;6.838;2024-01-30T03:10:41;8.10;99.90
37702;DHT22;23548;51.196;6.838;2024-01-30T03:13:07;8.10;99.90
37702;DHT22;23548;51.196;6.838;2024-01-30T03:15:33;8.10;99.90
37702;DHT22;23548;51.196;6.838;2024-01-30T03:17:59;8.10;99.90
37702;DHT22;23548;51.196;6.838;2024-01-30T03:20:24;8.10;99.90
37702;DHT22;23548;51.196;6.838;2024-01-30T03:22:50;8.10;99.90
37702;DHT22;23548;51.196;6.838;2024-01-30T03:25:16;8.10;99.90
37702;DHT22;23548;51.196;6.838;2024-01-30T03:27:41;8.10;99.90
37702;DHT22;23548;51.196;6.838;2024-01-30T03:30:08;8.20;99.90
37702;DHT22;23548;51.196;6.838;2024-01-30T03:32:33;8.20;99.90
37702;DHT22;23548;51.196;6.838;2024-01-30T03:34:59;8.20;99.90
37702;DHT22;23548;51.196;6.838;2024-01-30T03:37:25;8.30;99.90
37702;DHT22;23548;51.196;6.838;2024-01-30T03:39:50;8.30;99.90
37702;DHT22;23548;51.196;6.838;2024-01-30T03:42:16;8.30;99.90
37702;DHT22;23548;51.196;6.838;2024-01-30T03:44:42;8.20;99.90
37702;DHT22;23548;51.196;6.838;2024-01-30T03:47:08;8.20;99.90
37702;DHT22;23548;51.196;6.838;2024-01-30T03:49:34;8.10;99.90
37702;DHT22;23548;51.196;6.838;2024-01-30T03:51:59;8.20;99.90
37702;DHT22;23548;51.196;6.838;2024-01-30T03:54:25;8.20;99.90
37702;DHT22;23548;51.196;6.838;2024-01-30T03:56:51;8.20;99.90
37702;DHT22;23548;51.196;6.838;2024-01-30T03:59:16;8.10;99.90
37702;DHT22;23548;51.196;6.838;2024-01-30T04:01:47;8.00;99.90
37702;DHT22;23548;51.196;6.838;2024-01-30T04:04:13;8.10;99.90
37702;DHT22;23548;51.196;6.838;2024-01-30T04:06:38;8.10;99.90
37702;DHT22;23548;51.196;6.838;2024-01-30T04:09:04;8.20;99.90
37702;DHT22;23548;51.196;6.838;2024-01-30T04:11:30;8.10;99.90
37702;DHT22;23548;51.196;6.838;2024-01-30T04:13:56;7.90;99.90
37702;DHT22;23548;51.196;6.838;2024-01-30T04:16:23;7.80;99.90
37702;DHT22;23548;51.196;6.838;2024-01-30T04:18:49;7.90;99.90
37702;DHT22;23548;51.196;6.838;2024-01-30T04:21:14;7.90;99.90
37702;DHT22;23548;51.196;6.838;2024-01-30T04:23:41;7.80;99.90
37702;DHT22;23548;51.196;6.838;2024-01-30T04:26:07;7.70;99.90
37702;DHT22;23548;51.196;6.838;2024-01-30T04:31:08;7.80;99.90
37702;DHT22;23548;51.196;6.838;2024-01-30T04:33:33;7.80;99.90
37702;DHT22;23548;51.196;6.838;2024-01-30T04:35:59;7.70;99.90
37702;DHT22;23548;51.196;6.838;2024-01-30T04:38:25;7.80;99.90
37702;DHT22;23548;51.196;6.838;2024-01-30T04:40:50;7.80;99.90
37702;DHT22;23548;51.196;6.838;2024-01-30T04:43:16;7.70;99.90
37702;DHT22;23548;51.196;6.838;2024-01-30T04:45:42;7.70;99.90
37702;DHT22;23548;51.196;6.838;2024-01-30T04:48:07;7.70;99.90
37702;DHT22;23548;51.196;6.838;2024-01-30T04:50:33;7.70;99.90
37702;DHT22;23548;51.196;6.838;2024-01-30T04:52:59;7.60;99.90
37702;DHT22;23548;51.196;6.838;2024-01-30T04:55:25;7.70;99.90
37702;DHT22;23548;51.196;6.838;2024-01-30T04:57:50;7.60;99.90
37702;DHT22;23548;51.196;6.838;2024-01-30T05:00:16;7.70;99.90
37702;DHT22;23548;51.196;6.838;2024-01-30T05:02:42;7.70;99.90
37702;DHT22;23548;51.196;6.838;2024-01-30T05:05:08;7.90;99.90
37702;DHT22;23548;51.196;6.838;2024-01-30T05:07:34;7.90;99.90
37702;DHT22;23548;51.196;6.838;2024-01-30T05:10:00;7.90;99.90
37702;DHT22;23548;51.196;6.838;2024-01-30T05:12:26;7.90;99.90
37702;DHT22;23548;51.196;6.838;2024-01-30T05:14:51;8.00;99.90
37702;DHT22;23548;51.196;6.838;2024-01-30T05:17:17;8.00;99.90
37702;DHT22;23548;51.196;6.838;2024-01-30T05:19:43;8.00;99.90
37702;DHT22;23548;51.196;6.838;2024-01-30T05:22:09;7.90;99.90
37702;DHT22;23548;51.196;6.838;2024-01-30T05:24:36;7.80;99.90
37702;DHT22;23548;51.196;6.838;2024-01-30T05:27:01;7.80;99.90
37702;DHT22;23548;51.196;6.838;2024-01-30T05:29:28;7.80;99.90
37702;DHT22;23548;51.196;6.838;2024-01-30T05:31:53;7.80;99.90
37702;DHT22;23548;51.196;6.838;2024-01-30T05:34:19;7.90;99.90
37702;DHT22;23548;51.196;6.838;2024-01-30T05:36:44;7.90;99.90
37702;DHT22;23548;51.196;6.838;2024-01-30T05:39:10;7.80;99.90
37702;DHT22;23548;51.196;6.838;2024-01-30T05:41:36;7.90;99.90
37702;DHT22;23548;51.196;6.838;2024-01-30T05:44:02;7.80;99.90
37702;DHT22;23548;51.196;6.838;2024-01-30T05:46:27;7.80;99.90
37702;DHT22;23548;51.196;6.838;2024-01-30T05:48:53;7.80;99.90
37702;DHT22;23548;51.196;6.838;2024-01-30T05:51:19;7.70;99.90
37702;DHT22;23548;51.196;6.838;2024-01-30T05:53:45;7.70;99.90
37702;DHT22;23548;51.196;6.838;2024-01-30T05:56:10;7.70;99.90
37702;DHT22;23548;51.196;6.838;2024-01-30T05:58:36;7.70;99.90
37702;DHT22;23548;51.196;6.838;2024-01-30T06:01:06;7.70;99.90
37702;DHT22;23548;51.196;6.838;2024-01-30T06:03:32;7.60;99.90
37702;DHT22;23548;51.196;6.838;2024-01-30T06:05:58;7.70;99.90
37702;DHT22;23548;51.196;6.838;2024-01-30T06:08:23;7.70;99.90
37702;DHT22;23548;51.196;6.838;2024-01-30T06:10:49;7.70;99.90
37702;DHT22;23548;51.196;6.838;2024-01-30T06:13:15;7.60;99.90
37702;DHT22;23548;51.196;6.838;2024-01-30T06:15:41;7.70;99.90
37702;DHT22;23548;51.196;6.838;2024-01-30T06:18:06;7.60;99.90
37702;DHT22;23548;51.196;6.838;2024-01-30T06:20:32;7.70;99.90
37702;DHT22;23548;51.196;6.838;2024-01-30T06:22:58;7.70;99.90
37702;DHT22;23548;51.196;6.838;2024-01-30T06:25:23;7.90;99.90
37702;DHT22;23548;51.196;6.838;2024-01-30T06:27:49;8.00;99.90
37702;DHT22;23548;51.196;6.838;2024-01-30T06:30:15;8.10;99.90
37702;DHT22;23548;51.196;6.838;2024-01-30T06:32:41;8.10;99.90
37702;DHT22;23548;51.196;6.838;2024-01-30T06:35:08;8.10;99.90
37702;DHT22;23548;51.196;6.838;2024-01-30T06:37:33;8.10;99.90
37702;DHT22;23548;51.196;6.838;2024-01-30T06:39:59;8.10;99.90
37702;DHT22;23548;51.196;6.838;2024-01-30T06:42:25;8.20;99.90
37702;DHT22;23548;51.196;6.838;2024-01-30T06:44:51;8.30;99.90
37702;DHT22;23548;51.196;6.838;2024-01-30T06:47:16;8.30;99.90
37702;DHT22;23548;51.196;6.838;2024-01-30T06:49:42;8.30;99.90
37702;DHT22;23548;51.196;6.838;2024-01-30T06:52:09;8.30;99.90
37702;DHT22;23548;51.196;6.838;2024-01-30T06:54:35;8.20;99.90
37702;DHT22;23548;51.196;6.838;2024-01-30T06:57:00;8.20;99.90
37702;DHT22;23548;51.196;6.838;2024-01-30T06:59:26;8.10;99.90
37702;DHT22;23548;51.196;6.838;2024-01-30T07:01:51;8.20;99.90
37702;DHT22;23548;51.196;6.838;2024-01-30T07:04:17;8.10;99.90
37702;DHT22;23548;51.196;6.838;2024-01-30T07:06:44;8.10;99.90
37702;DHT22;23548;51.196;6.838;2024-01-30T07:09:09;8.10;99.90
37702;DHT22;23548;51.196;6.838;2024-01-30T07:11:35;8.00;99.90
37702;DHT22;23548;51.196;6.838;2024-01-30T07:14:01;8.10;99.90
37702;DHT22;23548;51.196;6.838;2024-01-30T07:16:30;8.20;99.90
37702;DHT22;23548;51.196;6.838;2024-01-30T07:18:55;8.30;99.90
37702;DHT22;23548;51.196;6.838;2024-01-30T07:21:22;8.20;99.90
37702;DHT22;23548;51.196;6.838;2024-01-30T07:23:55;8.20;99.90
37702;DHT22;23548;51.196;6.838;2024-01-30T07:26:21;8.20;99.90
37702;DHT22;23548;51.196;6.838;2024-01-30T07:28:47;8.20;99.90
37702;DHT22;23548;51.196;6.838;2024-01-30T07:31:13;8.30;99.90
37702;DHT22;23548;51.196;6.838;2024-01-30T07:33:38;8.30;99.90
37702;DHT22;23548;51.196;6.838;2024-01-30T07:36:04;8.40;99.90
37702;DHT22;23548;51.196;6.838;2024-01-30T07:38:33;8.40;99.90
37702;DHT22;23548;51.196;6.838;2024-01-30T07:41:02;8.40;99.90
37702;DHT22;23548;51.196;6.838;2024-01-30T07:43:27;8.40;99.90
37702;DHT22;23548;51.196;6.838;2024-01-30T07:45:53;8.50;99.90
37702;DHT22;23548;51.196;6.838;2024-01-30T07:48:19;8.60;99.90
37702;DHT22;23548;51.196;6.838;2024-01-30T07:50:45;8.60;99.90
37702;DHT22;23548;51.196;6.838;2024-01-30T07:53:10;8.60;99.90
37702;DHT22;23548;51.196;6.838;2024-01-30T07:55:36;8.70;99.90
37702;DHT22;23548;51.196;6.838;2024-01-30T07:58:02;8.80;99.90
37702;DHT22;23548;51.196;6.838;2024-01-30T08:00:29;8.80;99.90
37702;DHT22;23548;51.196;6.838;2024-01-30T08:02:54;8.80;99.90
37702;DHT22;23548;51.196;6.838;2024-01-30T08:05:21;8.80;99.90
37702;DHT22;23548;51.196;6.838;2024-01-30T08:07:48;8.80;99.90
37702;DHT22;23548;51.196;6.838;2024-01-30T08:10:15;8.80;99.90
37702;DHT22;23548;51.196;6.838;2024-01-30T08:12:41;8.80;99.90
37702;DHT22;23548;51.196;6.838;2024-01-30T08:15:07;8.90;99.90
37702;DHT22;23548;51.196;6.838;2024-01-30T08:17:33;8.90;99.90
37702;DHT22;23548;51.196;6.838;2024-01-30T08:19:59;9.00;99.90
37702;DHT22;23548;51.196;6.838;2024-01-30T08:22:25;9.10;99.90
37702;DHT22;23548;51.196;6.838;2024-01-30T08:24:51;9.10;99.90
37702;DHT22;23548;51.196;6.838;2024-01-30T08:27:16;9.20;99.90
37702;DHT22;23548;51.196;6.838;2024-01-30T08:29:42;9.20;99.90
37702;DHT22;23548;51.196;6.838;2024-01-30T08:32:08;9.10;99.90
37702;DHT22;23548;51.196;6.838;2024-01-30T08:34:33;9.10;99.90
37702;DHT22;23548;51.196;6.838;2024-01-30T08:37:00;9.20;99.90
37702;DHT22;23548;51.196;6.838;2024-01-30T08:39:25;9.30;99.90
37702;DHT22;23548;51.196;6.838;2024-01-30T08:41:51;9.40;99.90
37702;DHT22;23548;51.196;6.838;2024-01-30T08:44:17;9.50;99.90
37702;DHT22;23548;51.196;6.838;2024-01-30T08:46:44;9.50;99.90
37702;DHT22;23548;51.196;6.838;2024-01-30T08:49:11;9.50;99.90
37702;DHT22;23548;51.196;6.838;2024-01-30T08:51:39;9.50;99.90
37702;DHT22;23548;51.196;6.838;2024-01-30T08:54:04;9.50;99.90
37702;DHT22;23548;51.196;6.838;2024-01-30T08:56:30;9.60;99.90
37702;DHT22;23548;51.196;6.838;2024-01-30T08:58:56;9.70;99.90
37702;DHT22;23548;51.196;6.838;2024-01-30T09:01:22;9.70;99.90
37702;DHT22;23548;51.196;6.838;2024-01-30T09:03:47;9.80;99.90
37702;DHT22;23548;51.196;6.838;2024-01-30T09:06:13;9.90;99.90
37702;DHT22;23548;51.196;6.838;2024-01-30T09:08:39;9.80;99.90
37702;DHT22;23548;51.196;6.838;2024-01-30T09:11:09;10.00;99.90
37702;DHT22;23548;51.196;6.838;2024-01-30T09:13:35;10.10;99.90
37702;DHT22;23548;51.196;6.838;2024-01-30T09:16:01;10.20;99.90
37702;DHT22;23548;51.196;6.838;2024-01-30T09:18:27;10.30;99.90
37702;DHT22;23548;51.196;6.838;2024-01-30T09:20:52;10.40;99.90
37702;DHT22;23548;51.196;6.838;2024-01-30T09:23:18;10.40;99.90
37702;DHT22;23548;51.196;6.838;2024-01-30T09:25:45;10.30;99.90
37702;DHT22;23548;51.196;6.838;2024-01-30T09:28:10;10.40;99.90
37702;DHT22;23548;51.196;6.838;2024-01-30T09:30:36;10.50;99.90
37702;DHT22;23548;51.196;6.838;2024-01-30T09:33:02;10.70;99.90
37702;DHT22;23548;51.196;6.838;2024-01-30T09:35:28;10.80;99.90
37702;DHT22;23548;51.196;6.838;2024-01-30T09:37:55;10.80;99.90
37702;DHT22;23548;51.196;6.838;2024-01-30T09:40:22;11.00;99.90
37702;DHT22;23548;51.196;6.838;2024-01-30T09:42:50;11.00;99.90
37702;DHT22;23548;51.196;6.838;2024-01-30T09:45:26;11.00;99.90
37702;DHT22;23548;51.196;6.838;2024-01-30T09:47:53;11.20;99.90
37702;DHT22;23548;51.196;6.838;2024-01-30T09:50:19;11.10;99.90
37702;DHT22;23548;51.196;6.838;2024-01-30T09:52:48;11.30;99.90
37702;DHT22;23548;51.196;6.838;2024-01-30T09:55:15;11.50;99.90
37702;DHT22;23548;51.196;6.838;2024-01-30T09:57:42;11.50;99.90
37702;DHT22;23548;51.196;6.838;2024-01-30T10:00:07;11.50;99.90
37702;DHT22;23548;51.196;6.838;2024-01-30T10:02:34;11.60;99.90
37702;DHT22;23548;51.196;6.838;2024-01-30T10:05:00;11.60;99.90
37702;DHT22;23548;51.196;6.838;2024-01-30T10:07:26;11.50;99.90
37702;DHT22;23548;51.196;6.838;2024-01-30T10:09:53;11.60;99.90
37702;DHT22;23548;51.196;6.838;2024-01-30T10:12:18;11.60;99.90
37702;DHT22;23548;51.196;6.838;2024-01-30T10:14:44;11.50;99.90
37702;DHT22;23548;51.196;6.838;2024-01-30T10:17:11;11.60;99.90
37702;DHT22;23548;51.196;6.838;2024-01-30T10:19:40;11.70;99.90
37702;DHT22;23548;51.196;6.838;2024-01-30T10:22:06;11.80;99.90
37702;DHT22;23548;51.196;6.838;2024-01-30T10:24:34;11.90;99.90
37702;DHT22;23548;51.196;6.838;2024-01-30T10:27:00;12.10;99.90
37702;DHT22;23548;51.196;6.838;2024-01-30T10:29:26;12.10;99.90
37702;DHT22;23548;51.196;6.838;2024-01-30T10:32:02;11.90;99.90
37702;DHT22;23548;51.196;6.838;2024-01-30T10:34:28;12.00;99.90
37702;DHT22;23548;51.196;6.838;2024-01-30T10:37:15;12.00;99.90
37702;DHT22;23548;51.196;6.838;2024-01-30T10:39:43;12.00;99.90
37702;DHT22;23548;51.196;6.838;2024-01-30T10:42:15;12.00;99.90
37702;DHT22;23548;51.196;6.838;2024-01-30T10:45:07;12.00;99.90
37702;DHT22;23548;51.196;6.838;2024-01-30T10:47:34;12.20;99.90
37702;DHT22;23548;51.196;6.838;2024-01-30T10:50:02;12.10;99.90
37702;DHT22;23548;51.196;6.838;2024-01-30T10:52:29;12.20;99.90
37702;DHT22;23548;51.196;6.838;2024-01-30T10:54:55;12.30;99.90
37702;DHT22;23548;51.196;6.838;2024-01-30T10:57:25;12.30;99.90
37702;DHT22;23548;51.196;6.838;2024-01-30T10:59:55;12.50;99.90
37702;DHT22;23548;51.196;6.838;2024-01-30T11:02:22;12.70;99.90
37702;DHT22;23548;51.196;6.838;2024-01-30T11:04:49;12.70;99.90
37702;DHT22;23548;51.196;6.838;2024-01-30T11:07:16;12.50;99.90
37702;DHT22;23548;51.196;6.838;2024-01-30T11:09:52;12.50;99.90
37702;DHT22;23548;51.196;6.838;2024-01-30T11:12:25;12.50;99.90
37702;DHT22;23548;51.196;6.838;2024-01-30T11:15:08;12.60;99.90
37702;DHT22;23548;51.196;6.838;2024-01-30T11:20:29;12.50;99.90
37702;DHT22;23548;51.196;6.838;2024-01-30T11:22:59;12.60;99.90
37702;DHT22;23548;51.196;6.838;2024-01-30T11:25:26;12.60;99.90
37702;DHT22;23548;51.196;6.838;2024-01-30T11:27:53;12.70;99.90
37702;DHT22;23548;51.196;6.838;2024-01-30T11:30:26;12.40;99.90
37702;DHT22;23548;51.196;6.838;2024-01-30T11:33:02;12.70;99.90
37702;DHT22;23548;51.196;6.838;2024-01-30T11:35:50;12.80;99.90
37702;DHT22;23548;51.196;6.838;2024-01-30T11:38:16;12.80;99.90
37702;DHT22;23548;51.196;6.838;2024-01-30T11:40:42;12.80;99.90
37702;DHT22;23548;51.196;6.838;2024-01-30T11:43:09;12.70;99.90
37702;DHT22;23548;51.196;6.838;2024-01-30T11:45:35;12.70;99.90
37702;DHT22;23548;51.196;6.838;2024-01-30T11:48:02;12.60;99.90
37702;DHT22;23548;51.196;6.838;2024-01-30T11:50:33;12.30;99.90
37702;DHT22;23548;51.196;6.838;2024-01-30T11:53:00;12.20;99.90
37702;DHT22;23548;51.196;6.838;2024-01-30T11:55:26;12.00;99.90
37702;DHT22;23548;51.196;6.838;2024-01-30T11:57:55;12.00;99.90
37702;DHT22;23548;51.196;6.838;2024-01-30T12:00:21;11.90;99.90
37702;DHT22;23548;51.196;6.838;2024-01-30T12:02:51;11.90;99.90
37702;DHT22;23548;51.196;6.838;2024-01-30T12:05:19;11.80;99.90
37702;DHT22;23548;51.196;6.838;2024-01-30T12:07:45;11.80;99.90
37702;DHT22;23548;51.196;6.838;2024-01-30T12:10:13;11.80;99.90
37702;DHT22;23548;51.196;6.838;2024-01-30T12:12:45;11.80;99.90
37702;DHT22;23548;51.196;6.838;2024-01-30T12:15:11;11.80;99.90
37702;DHT22;23548;51.196;6.838;2024-01-30T12:17:36;11.90;99.90
37702;DHT22;23548;51.196;6.838;2024-01-30T12:20:13;11.80;99.90
37702;DHT22;23548;51.196;6.838;2024-01-30T12:22:43;11.90;99.90
37702;DHT22;23548;51.196;6.838;2024-01-30T12:25:14;11.90;99.90
37702;DHT22;23548;51.196;6.838;2024-01-30T12:27:42;11.80;99.90
37702;DHT22;23548;51.196;6.838;2024-01-30T12:30:10;11.80;99.90
37702;DHT22;23548;51.196;6.838;2024-01-30T12:32:41;11.80;99.90
37702;DHT22;23548;51.196;6.838;2024-01-30T12:35:14;11.80;99.90
37702;DHT22;23548;51.196;6.838;2024-01-30T12:37:40;11.80;99.90
37702;DHT22;23548;51.196;6.838;2024-01-30T12:40:10;11.90;99.90
37702;DHT22;23548;51.196;6.838;2024-01-30T12:42:37;11.90;99.90
37702;DHT22;23548;51.196;6.838;2024-01-30T12:45:03;11.90;99.90
37702;DHT22;23548;51.196;6.838;2024-01-30T12:47:30;11.90;99.90
37702;DHT22;23548;51.196;6.838;2024-01-30T12:49:56;11.90;99.90
37702;DHT22;23548;51.196;6.838;2024-01-30T12:52:22;12.00;99.90
37702;DHT22;23548;51.196;6.838;2024-01-30T12:54:49;12.10;99.90
37702;DHT22;23548;51.196;6.838;2024-01-30T12:57:15;12.20;99.90
37702;DHT22;23548;51.196;6.838;2024-01-30T12:59:41;12.30;99.90
37702;DHT22;23548;51.196;6.838;2024-01-30T13:02:07;12.30;99.90
37702;DHT22;23548;51.196;6.838;2024-01-30T13:04:34;12.30;99.90
37702;DHT22;23548;51.196;6.838;2024-01-30T13:07:00;12.40;99.90
37702;DHT22;23548;51.196;6.838;2024-01-30T13:09:29;12.40;99.90
37702;DHT22;23548;51.196;6.838;2024-01-30T13:11:56;12.40;99.90
37702;DHT22;23548;51.196;6.838;2024-01-30T13:14:21;12.40;99.90
37702;DHT22;23548;51.196;6.838;2024-01-30T13:16:47;12.40;99.90
37702;DHT22;23548;51.196;6.838;2024-01-30T13:19:13;12.40;99.90
37702;DHT22;23548;51.196;6.838;2024-01-30T13:21:39;12.30;99.90
37702;DHT22;23548;51.196;6.838;2024-01-30T13:24:05;12.30;99.90
37702;DHT22;23548;51.196;6.838;2024-01-30T13:26:32;12.30;99.90
37702;DHT22;23548;51.196;6.838;2024-01-30T13:28:58;12.30;99.90
37702;DHT22;23548;51.196;6.838;2024-01-30T13:31:24;12.30;99.90
37702;DHT22;23548;51.196;6.838;2024-01-30T13:33:50;12.30;99.90
37702;DHT22;23548;51.196;6.838;2024-01-30T13:36:16;12.30;99.90
37702;DHT22;23548;51.196;6.838;2024-01-30T13:38:42;12.20;99.90
37702;DHT22;23548;51.196;6.838;2024-01-30T13:41:08;12.30;99.90
37702;DHT22;23548;51.196;6.838;2024-01-30T13:43:33;12.30;99.90
37702;DHT22;23548;51.196;6.838;2024-01-30T13:45:59;12.30;99.90
37702;DHT22;23548;51.196;6.838;2024-01-30T13:48:25;12.30;99.90
37702;DHT22;23548;51.196;6.838;2024-01-30T13:50:51;12.30;99.90
37702;DHT22;23548;51.196;6.838;2024-01-30T13:53:16;12.30;99.90
37702;DHT22;23548;51.196;6.838;2024-01-30T13:55:43;12.40;99.90
37702;DHT22;23548;51.196;6.838;2024-01-30T13:58:09;12.50;99.90
37702;DHT22;23548;51.196;6.838;2024-01-30T14:00:34;12.50;99.90
37702;DHT22;23548;51.196;6.838;2024-01-30T14:03:00;12.60;99.90
37702;DHT22;23548;51.196;6.838;2024-01-30T14:05:26;12.70;99.90
37702;DHT22;23548;51.196;6.838;2024-01-30T14:07:53;12.80;99.90
37702;DHT22;23548;51.196;6.838;2024-01-30T14:10:19;12.80;99.90
37702;DHT22;23548;51.196;6.838;2024-01-30T14:12:45;12.80;99.90
37702;DHT22;23548;51.196;6.838;2024-01-30T14:15:13;12.70;99.90
37702;DHT22;23548;51.196;6.838;2024-01-30T14:17:40;12.70;99.90
37702;DHT22;23548;51.196;6.838;2024-01-30T14:20:07;12.80;99.90
37702;DHT22;23548;51.196;6.838;2024-01-30T14:22:33;12.70;99.90
37702;DHT22;23548;51.196;6.838;2024-01-30T14:25:00;12.70;99.90
37702;DHT22;23548;51.196;6.838;2024-01-30T14:27:27;12.70;99.90
37702;DHT22;23548;51.196;6.838;2024-01-30T14:29:53;12.80;99.90
37702;DHT22;23548;51.196;6.838;2024-01-30T14:32:18;12.70;99.90
37702;DHT22;23548;51.196;6.838;2024-01-30T14:34:44;12.70;99.90
37702;DHT22;23548;51.196;6.838;2024-01-30T14:37:13;12.70;99.90
37702;DHT22;23548;51.196;6.838;2024-01-30T14:39:39;12.80;99.90
37702;DHT22;23548;51.196;6.838;2024-01-30T14:42:06;12.70;99.90
37702;DHT22;23548;51.196;6.838;2024-01-30T14:44:32;12.50;99.90
37702;DHT22;23548;51.196;6.838;2024-01-30T14:46:59;12.60;99.90
37702;DHT22;23548;51.196;6.838;2024-01-30T14:49:25;12.50;99.90
37702;DHT22;23548;51.196;6.838;2024-01-30T14:51:51;12.50;99.90
37702;DHT22;23548;51.196;6.838;2024-01-30T14:54:17;12.50;99.90
37702;DHT22;23548;51.196;6.838;2024-01-30T14:56:44;12.40;99.90
37702;DHT22;23548;51.196;6.838;2024-01-30T14:59:10;12.40;99.90
37702;DHT22;23548;51.196;6.838;2024-01-30T15:01:36;12.40;99.90
37702;DHT22;23548;51.196;6.838;2024-01-30T15:04:02;12.30;99.90
37702;DHT22;23548;51.196;6.838;2024-01-30T15:06:28;12.40;99.90
37702;DHT22;23548;51.196;6.838;2024-01-30T15:08:54;12.40;99.90
37702;DHT22;23548;51.196;6.838;2024-01-30T15:11:20;12.40;99.90
37702;DHT22;23548;51.196;6.838;2024-01-30T15:13:46;12.30;99.90
37702;DHT22;23548;51.196;6.838;2024-01-30T15:16:12;12.20;99.90
37702;DHT22;23548;51.196;6.838;2024-01-30T15:18:38;12.20;99.90
37702;DHT22;23548;51.196;6.838;2024-01-30T15:21:04;12.20;99.90
37702;DHT22;23548;51.196;6.838;2024-01-30T15:23:30;12.20;99.90
37702;DHT22;23548;51.196;6.838;2024-01-30T15:25:55;12.10;99.90
37702;DHT22;23548;51.196;6.838;2024-01-30T15:28:37;12.10;99.90
37702;DHT22;23548;51.196;6.838;2024-01-30T15:31:06;12.00;99.90
37702;DHT22;23548;51.196;6.838;2024-01-30T15:33:32;12.00;99.90
37702;DHT22;23548;51.196;6.838;2024-01-30T15:36:01;12.00;99.90
37702;DHT22;23548;51.196;6.838;2024-01-30T15:38:28;11.90;99.90
37702;DHT22;23548;51.196;6.838;2024-01-30T15:40:55;11.90;99.90
37702;DHT22;23548;51.196;6.838;2024-01-30T15:43:21;11.80;99.90
37702;DHT22;23548;51.196;6.838;2024-01-30T15:45:48;11.90;99.90